createdAt,value
2023-06-27T00:01:52.560Z,1.23
2023-06-27T00:04:20.311Z,1.77
2023-06-27T00:06:47.819Z,1.88
2023-06-27T00:09:16.238Z,1.67
2023-06-27T00:11:43.423Z,1.63
2023-06-27T00:14:10.852Z,1.63
2023-06-27T00:16:39.240Z,1.42
2023-06-27T00:19:06.523Z,1.80
2023-06-27T00:21:34.722Z,2.75
2023-06-27T00:24:02.515Z,1.75
2023-06-27T00:26:29.796Z,1.42
2023-06-27T00:28:57.174Z,1.90
2023-06-27T00:31:24.547Z,1.42
2023-06-27T00:33:51.769Z,1.90
2023-06-27T00:36:18.767Z,1.77
2023-06-27T00:38:45.909Z,2.00
2023-06-27T00:41:12.857Z,1.63
2023-06-27T00:43:39.722Z,1.52
2023-06-27T00:46:08.515Z,2.10
2023-06-27T00:48:35.699Z,1.70
2023-06-27T00:51:04.628Z,1.52
2023-06-27T00:53:31.779Z,1.48
2023-06-27T00:55:59.075Z,1.58
2023-06-27T00:58:26.634Z,1.77
2023-06-27T01:00:53.538Z,1.60
2023-06-27T01:03:22.114Z,1.60
2023-06-27T01:05:49.398Z,1.45
2023-06-27T01:08:35.711Z,2.17
2023-06-27T01:11:29.636Z,1.55
2023-06-27T01:13:58.159Z,1.85
2023-06-27T01:16:30.087Z,1.92
2023-06-27T01:18:58.506Z,1.67
2023-06-27T01:21:29.849Z,2.35
2023-06-27T01:24:03.706Z,1.52
2023-06-27T01:26:31.357Z,1.13
2023-06-27T01:28:58.240Z,1.50
2023-06-27T01:31:40.702Z,1.88
2023-06-27T01:34:24.119Z,2.00
2023-06-27T01:37:22.113Z,1.50
2023-06-27T01:39:58.196Z,1.67
2023-06-27T01:42:30.088Z,1.73
2023-06-27T01:44:58.334Z,1.60
2023-06-27T01:47:26.174Z,2.33
2023-06-27T01:49:53.061Z,1.70
2023-06-27T01:52:20.376Z,1.60
2023-06-27T01:54:47.315Z,1.70
2023-06-27T01:57:14.162Z,1.45
2023-06-27T01:59:40.971Z,2.30
2023-06-27T02:02:08.002Z,1.85
2023-06-27T02:04:35.357Z,2.17
2023-06-27T02:07:02.223Z,2.20
2023-06-27T02:09:29.056Z,1.45
2023-06-27T02:11:55.896Z,1.40
2023-06-27T02:14:22.677Z,1.02
2023-06-27T02:16:49.466Z,1.67
2023-06-27T02:19:16.280Z,1.80
2023-06-27T02:21:44.331Z,2.47
2023-06-27T02:24:11.124Z,1.50
2023-06-27T02:26:37.979Z,1.60
2023-06-27T02:29:04.799Z,2.05
2023-06-27T02:31:31.645Z,1.35
2023-06-27T02:33:58.503Z,1.35
2023-06-27T02:36:28.371Z,1.60
2023-06-27T02:38:56.113Z,1.50
2023-06-27T02:41:25.954Z,1.80
2023-06-27T02:43:53.041Z,1.50
2023-06-27T02:46:20.130Z,1.55
2023-06-27T02:48:47.066Z,2.22
2023-06-27T02:51:14.025Z,1.52
2023-06-27T02:53:40.823Z,1.42
2023-06-27T02:56:08.998Z,1.50
2023-06-27T02:58:36.058Z,1.70
2023-06-27T03:01:07.429Z,2.15
2023-06-27T03:03:35.315Z,0.88
2023-06-27T03:06:09.978Z,1.50
2023-06-27T03:08:40.346Z,1.23
2023-06-27T03:11:07.150Z,1.10
2023-06-27T03:13:34.011Z,1.20
2023-06-27T03:16:02.015Z,1.35
2023-06-27T03:18:29.072Z,1.50
2023-06-27T03:20:55.942Z,1.63
2023-06-27T03:23:22.776Z,1.23
2023-06-27T03:25:49.777Z,1.40
2023-06-27T03:28:16.576Z,1.20
2023-06-27T03:30:44.746Z,1.92
2023-06-27T03:33:12.206Z,1.23
2023-06-27T03:35:39.970Z,1.17
2023-06-27T03:38:07.066Z,1.33
2023-06-27T03:40:34.031Z,1.45
2023-06-27T03:43:01.769Z,1.52
2023-06-27T03:45:29.404Z,1.30
2023-06-27T03:47:56.358Z,1.10
2023-06-27T03:50:23.570Z,1.30
2023-06-27T03:52:50.420Z,1.30
2023-06-27T03:55:17.341Z,1.45
2023-06-27T03:57:44.179Z,1.42
2023-06-27T04:00:12.097Z,1.30
2023-06-27T04:02:39.078Z,1.20
2023-06-27T04:05:06.689Z,1.27
2023-06-27T04:07:33.738Z,1.38
2023-06-27T04:10:00.686Z,1.30
2023-06-27T04:12:27.558Z,0.90
2023-06-27T04:14:54.420Z,1.38
2023-06-27T04:17:21.712Z,1.33
2023-06-27T04:19:48.597Z,1.23
2023-06-27T04:22:15.609Z,1.27
2023-06-27T04:24:42.412Z,1.25
2023-06-27T04:27:09.910Z,1.67
2023-06-27T04:29:37.872Z,1.00
2023-06-27T04:32:05.351Z,1.17
2023-06-27T04:34:32.237Z,1.08
2023-06-27T04:36:59.062Z,1.17
2023-06-27T04:39:25.873Z,1.10
2023-06-27T04:41:52.677Z,1.13
2023-06-27T04:44:22.032Z,1.45
2023-06-27T04:46:48.834Z,1.67
2023-06-27T04:49:15.837Z,1.23
2023-06-27T04:51:42.692Z,1.40
2023-06-27T04:54:09.518Z,1.30
2023-06-27T04:56:36.370Z,1.55
2023-06-27T04:59:03.233Z,1.30
2023-06-27T05:01:30.169Z,1.40
2023-06-27T05:04:05.257Z,1.52
2023-06-27T05:06:34.118Z,1.30
2023-06-27T05:09:02.450Z,1.45
2023-06-27T05:11:29.535Z,1.83
2023-06-27T05:13:56.396Z,1.10
2023-06-27T05:16:23.832Z,1.45
2023-06-27T05:18:50.698Z,1.60
2023-06-27T05:21:17.548Z,1.30
2023-06-27T05:23:44.613Z,1.73
2023-06-27T05:26:11.436Z,2.03
2023-06-27T05:28:38.384Z,1.40
2023-06-27T05:31:05.327Z,1.60
2023-06-27T05:33:32.255Z,1.23
2023-06-27T05:35:59.107Z,1.52
2023-06-27T05:38:25.968Z,1.55
2023-06-27T05:40:52.768Z,1.50
2023-06-27T05:43:21.786Z,1.45
2023-06-27T05:45:48.647Z,1.55
2023-06-27T05:48:15.519Z,1.35
2023-06-27T05:50:42.344Z,1.60
2023-06-27T05:53:09.204Z,1.15
2023-06-27T05:55:35.994Z,1.52
2023-06-27T05:58:02.806Z,1.80
2023-06-27T06:00:30.864Z,1.42
2023-06-27T06:02:57.857Z,1.95
2023-06-27T06:05:24.747Z,1.10
2023-06-27T06:07:52.046Z,1.05
2023-06-27T06:10:19.800Z,1.33
2023-06-27T06:12:46.630Z,1.80
2023-06-27T06:15:13.465Z,1.20
2023-06-27T06:17:40.812Z,1.60
2023-06-27T06:20:12.003Z,1.27
2023-06-27T06:22:39.365Z,1.40
2023-06-27T06:25:06.761Z,1.40
2023-06-27T06:27:33.728Z,1.15
2023-06-27T06:30:00.559Z,1.00
2023-06-27T06:32:27.490Z,1.30
2023-06-27T06:34:54.359Z,1.15
2023-06-27T06:37:22.994Z,1.10
2023-06-27T06:39:49.818Z,1.17
2023-06-27T06:42:16.602Z,1.55
2023-06-27T06:44:43.478Z,1.00
2023-06-27T06:47:10.418Z,1.75
2023-06-27T06:49:37.302Z,1.20
2023-06-27T06:52:04.384Z,1.38
2023-06-27T06:54:31.225Z,1.40
2023-06-27T06:56:58.061Z,1.27
2023-06-27T06:59:24.856Z,1.00
2023-06-27T07:01:52.252Z,1.10
2023-06-27T07:04:19.149Z,2.55
2023-06-27T07:06:46.018Z,1.35
2023-06-27T07:09:12.821Z,1.35
2023-06-27T07:11:39.692Z,1.10
2023-06-27T07:14:06.499Z,1.20
2023-06-27T07:16:33.347Z,0.98
2023-06-27T07:19:00.164Z,1.10
2023-06-27T07:21:27.114Z,1.13
2023-06-27T07:23:53.983Z,1.15
2023-06-27T07:26:21.760Z,1.52
2023-06-27T07:28:48.674Z,1.35
2023-06-27T07:31:15.614Z,1.10
2023-06-27T07:33:42.413Z,1.27
2023-06-27T07:36:09.334Z,0.82
2023-06-27T07:38:36.136Z,0.95
2023-06-27T07:41:03.663Z,1.00
2023-06-27T07:43:30.535Z,0.80
2023-06-27T07:45:57.437Z,0.82
2023-06-27T07:48:24.285Z,0.77
2023-06-27T07:50:51.091Z,1.30
2023-06-27T07:53:17.894Z,1.10
2023-06-27T07:55:44.710Z,1.13
2023-06-27T07:58:11.490Z,0.63
2023-06-27T08:00:40.174Z,0.70
2023-06-27T08:03:07.291Z,1.55
2023-06-27T08:05:36.310Z,1.05
2023-06-27T08:08:03.485Z,1.00
2023-06-27T08:10:30.648Z,1.00
2023-06-27T08:12:57.558Z,0.80
2023-06-27T08:15:24.415Z,0.55
2023-06-27T08:17:51.515Z,0.90
2023-06-27T08:20:19.108Z,0.65
2023-06-27T08:22:46.356Z,0.68
2023-06-27T08:25:13.250Z,0.90
2023-06-27T08:27:40.090Z,0.85
2023-06-27T08:30:08.382Z,0.77
2023-06-27T08:32:35.270Z,0.90
2023-06-27T08:35:05.276Z,1.35
2023-06-27T08:37:32.369Z,0.90
2023-06-27T08:39:59.221Z,0.75
2023-06-27T08:42:26.372Z,0.70
2023-06-27T08:44:53.752Z,0.75
2023-06-27T08:47:26.739Z,0.93
2023-06-27T08:50:03.117Z,1.08
2023-06-27T08:52:35.085Z,1.08
2023-06-27T08:55:05.881Z,0.70
2023-06-27T08:57:34.422Z,0.88
2023-06-27T09:00:13.135Z,0.65
2023-06-27T09:02:42.388Z,1.13
2023-06-27T09:05:10.069Z,1.08
2023-06-27T09:07:37.531Z,0.90
2023-06-27T09:10:04.789Z,1.00
2023-06-27T09:12:33.899Z,0.88
2023-06-27T09:15:00.730Z,1.08
2023-06-27T09:17:27.602Z,0.90
2023-06-27T09:19:54.484Z,1.00
2023-06-27T09:22:24.397Z,0.90
2023-06-27T09:24:51.280Z,0.70
2023-06-27T09:27:33.031Z,0.82
2023-06-27T09:30:04.435Z,0.73
2023-06-27T09:32:31.541Z,1.00
2023-06-27T09:35:03.738Z,0.98
2023-06-27T09:40:21.668Z,1.02
2023-06-27T09:42:56.732Z,0.70
2023-06-27T09:45:25.183Z,1.10
2023-06-27T09:47:52.452Z,0.70
2023-06-27T09:50:28.690Z,0.75
2023-06-27T09:53:00.611Z,0.85
2023-06-27T09:55:28.427Z,1.13
2023-06-27T09:57:55.647Z,0.85
2023-06-27T10:00:23.810Z,0.90
2023-06-27T10:02:52.068Z,0.85
2023-06-27T10:05:22.020Z,0.60
2023-06-27T10:07:51.338Z,0.60
2023-06-27T10:10:25.166Z,0.77
2023-06-27T10:12:53.540Z,1.25
2023-06-27T10:15:20.998Z,0.52
2023-06-27T10:17:48.488Z,0.90
2023-06-27T10:20:15.579Z,1.00
2023-06-27T10:22:45.691Z,0.70
2023-06-27T10:25:13.513Z,1.23
2023-06-27T10:27:43.601Z,0.88
2023-06-27T10:30:27.105Z,0.77
2023-06-27T10:33:21.951Z,0.70
2023-06-27T10:35:55.232Z,0.70
2023-06-27T10:38:22.768Z,0.80
2023-06-27T10:41:03.417Z,0.98
2023-06-27T10:43:37.562Z,0.80
2023-06-27T10:46:27.654Z,0.77
2023-06-27T10:49:07.869Z,0.70
2023-06-27T10:51:43.058Z,0.47
2023-06-27T10:54:10.012Z,0.93
2023-06-27T10:56:42.101Z,0.60
2023-06-27T10:59:27.852Z,0.60
2023-06-27T11:02:08.228Z,0.82
2023-06-27T11:04:44.419Z,0.55
2023-06-27T11:07:18.867Z,0.70
2023-06-27T11:09:57.465Z,0.63
2023-06-27T11:12:24.682Z,0.65
2023-06-27T11:14:55.217Z,0.50
2023-06-27T11:17:26.828Z,0.75
2023-06-27T11:19:57.621Z,0.60
2023-06-27T11:22:25.262Z,0.55
2023-06-27T11:24:52.088Z,0.57
2023-06-27T11:27:20.339Z,0.82
2023-06-27T11:29:47.159Z,0.50
2023-06-27T11:32:14.143Z,0.70
2023-06-27T11:34:44.087Z,0.98
2023-06-27T11:37:12.771Z,0.90
2023-06-27T11:39:39.806Z,0.85
2023-06-27T11:42:07.089Z,0.70
2023-06-27T11:44:35.993Z,0.73
2023-06-27T11:47:06.482Z,0.57
2023-06-27T11:49:34.294Z,0.93
2023-06-27T11:52:01.505Z,0.63
2023-06-27T11:54:28.361Z,0.47
2023-06-27T11:57:01.954Z,0.93
2023-06-27T11:59:33.282Z,0.95
2023-06-27T12:02:00.248Z,0.60
2023-06-27T12:04:27.248Z,0.60
2023-06-27T12:06:54.141Z,0.65
2023-06-27T12:09:28.172Z,1.23
2023-06-27T12:11:59.400Z,0.82
2023-06-27T12:14:27.956Z,0.70
2023-06-27T12:16:54.853Z,0.70
2023-06-27T12:19:23.905Z,0.85
2023-06-27T12:21:53.819Z,0.88
2023-06-27T12:24:21.447Z,0.85
2023-06-27T12:26:48.777Z,0.60
2023-06-27T12:29:17.622Z,0.70
2023-06-27T12:31:47.038Z,0.65
2023-06-27T12:34:14.369Z,0.57
2023-06-27T12:36:41.203Z,0.85
2023-06-27T12:39:08.162Z,0.75
2023-06-27T12:41:35.157Z,0.90
2023-06-27T12:44:02.097Z,0.93
2023-06-27T12:46:29.021Z,0.85
2023-06-27T12:48:55.834Z,0.98
2023-06-27T12:51:23.376Z,0.95
2023-06-27T12:53:50.257Z,0.60
2023-06-27T12:56:17.615Z,0.60
2023-06-27T12:58:47.443Z,0.57
2023-06-27T13:01:14.928Z,0.90
2023-06-27T13:03:41.861Z,0.60
2023-06-27T13:06:08.947Z,0.60
2023-06-27T13:08:35.766Z,0.50
2023-06-27T13:11:02.779Z,0.70
2023-06-27T13:13:34.667Z,0.50
2023-06-27T13:16:13.781Z,0.60
2023-06-27T13:18:41.749Z,0.77
2023-06-27T13:21:08.596Z,0.60
2023-06-27T13:23:35.907Z,0.80
2023-06-27T13:26:02.820Z,0.93
2023-06-27T13:28:29.774Z,0.73
2023-06-27T13:30:56.613Z,0.63
2023-06-27T13:33:24.957Z,1.13
2023-06-27T13:35:51.804Z,0.40
2023-06-27T13:38:18.974Z,1.05
2023-06-27T13:40:45.879Z,0.50
2023-06-27T13:43:12.707Z,0.45
2023-06-27T13:45:39.777Z,0.63
2023-06-27T13:48:06.705Z,0.47
2023-06-27T13:50:33.651Z,0.50
2023-06-27T13:53:00.641Z,0.50
2023-06-27T13:55:28.594Z,0.50
2023-06-27T13:57:55.492Z,0.70
2023-06-27T14:00:22.335Z,0.68
2023-06-27T14:02:49.764Z,0.60
2023-06-27T14:05:16.891Z,0.55
2023-06-27T14:07:43.775Z,0.60
2023-06-27T14:10:10.611Z,0.50
2023-06-27T14:12:38.726Z,0.73
2023-06-27T14:15:06.259Z,0.30
2023-06-27T14:17:33.593Z,0.50
2023-06-27T14:20:00.613Z,0.32
2023-06-27T14:22:27.784Z,0.30
2023-06-27T14:24:54.626Z,0.35
2023-06-27T14:27:21.710Z,0.32
2023-06-27T14:29:48.597Z,0.30
2023-06-27T14:32:15.453Z,0.40
2023-06-27T14:34:42.305Z,0.40
2023-06-27T14:37:10.006Z,0.73
2023-06-27T14:39:36.817Z,0.32
2023-06-27T14:42:04.305Z,0.77
2023-06-27T14:44:34.484Z,0.70
2023-06-27T14:47:01.613Z,0.90
2023-06-27T14:49:28.423Z,0.68
2023-06-27T14:51:55.267Z,0.50
2023-06-27T14:54:22.194Z,0.80
2023-06-27T14:56:50.067Z,0.40
2023-06-27T14:59:17.833Z,0.70
2023-06-27T15:01:44.781Z,0.57
2023-06-27T15:04:11.705Z,0.70
2023-06-27T15:06:38.633Z,0.70
2023-06-27T15:09:05.569Z,0.60
2023-06-27T15:11:32.449Z,0.73
2023-06-27T15:13:59.248Z,0.73
2023-06-27T15:16:26.107Z,0.70
2023-06-27T15:18:52.952Z,0.65
2023-06-27T15:21:19.768Z,0.73
2023-06-27T15:23:46.649Z,0.60
2023-06-27T15:26:13.470Z,0.80
2023-06-27T15:28:40.269Z,0.65
2023-06-27T15:31:09.294Z,0.70
2023-06-27T15:33:36.212Z,0.75
2023-06-27T15:36:03.524Z,0.82
2023-06-27T15:38:30.455Z,0.98
2023-06-27T15:40:57.347Z,0.80
2023-06-27T15:43:24.188Z,0.68
2023-06-27T15:45:51.042Z,0.73
2023-06-27T15:48:19.030Z,0.50
2023-06-27T15:50:45.830Z,0.60
2023-06-27T15:53:12.695Z,0.65
2023-06-27T15:55:39.501Z,0.70
2023-06-27T15:58:06.349Z,1.02
2023-06-27T16:00:33.225Z,0.80
2023-06-27T16:03:00.162Z,0.85
2023-06-27T16:05:27.174Z,0.70
2023-06-27T16:07:54.248Z,1.48
2023-06-27T16:10:23.829Z,0.80
2023-06-27T16:12:50.786Z,0.70
2023-06-27T16:15:17.673Z,0.45
2023-06-27T16:17:44.772Z,0.57
2023-06-27T16:20:11.988Z,0.88
2023-06-27T16:22:38.843Z,0.45
2023-06-27T16:25:06.148Z,0.60
2023-06-27T16:27:32.999Z,0.50
2023-06-27T16:29:59.823Z,0.60
2023-06-27T16:32:26.693Z,0.55
2023-06-27T16:34:53.564Z,0.98
2023-06-27T16:37:20.470Z,0.40
2023-06-27T16:39:47.332Z,0.50
2023-06-27T16:42:14.149Z,0.85
2023-06-27T16:44:40.981Z,0.95
2023-06-27T16:47:07.829Z,0.55
2023-06-27T16:49:34.651Z,0.50
2023-06-27T16:52:01.527Z,0.60
2023-06-27T16:54:28.355Z,0.60
2023-06-27T16:56:55.208Z,0.70
2023-06-27T16:59:22.080Z,0.60
2023-06-27T17:01:52.151Z,0.80
2023-06-27T17:04:21.700Z,0.60
2023-06-27T17:06:48.555Z,0.82
2023-06-27T17:09:15.452Z,0.73
2023-06-27T17:11:42.288Z,0.60
2023-06-27T17:14:09.127Z,0.80
2023-06-27T17:16:35.970Z,1.00
2023-06-27T17:19:02.838Z,0.90
2023-06-27T17:21:30.555Z,0.80
2023-06-27T17:23:57.432Z,0.70
2023-06-27T17:26:24.239Z,0.70
2023-06-27T17:28:51.449Z,1.40
2023-06-27T17:31:18.291Z,0.93
2023-06-27T17:33:45.103Z,1.00
2023-06-27T17:36:12.069Z,0.70
2023-06-27T17:38:38.879Z,0.60
2023-06-27T17:41:05.669Z,0.70
2023-06-27T17:43:32.522Z,0.50
2023-06-27T17:46:00.111Z,0.60
2023-06-27T17:48:26.987Z,0.70
2023-06-27T17:50:53.888Z,0.60
2023-06-27T17:53:21.058Z,0.68
2023-06-27T17:55:47.877Z,0.93
2023-06-27T17:58:14.749Z,0.60
2023-06-27T18:00:42.647Z,0.63
2023-06-27T18:03:10.054Z,0.68
2023-06-27T18:05:36.975Z,0.68
2023-06-27T18:08:03.982Z,0.68
2023-06-27T18:10:30.835Z,0.80
2023-06-27T18:12:57.740Z,0.50
2023-06-27T18:15:26.008Z,0.80
2023-06-27T18:17:52.939Z,0.60
2023-06-27T18:20:20.250Z,0.70
2023-06-27T18:22:47.048Z,0.80
2023-06-27T18:25:13.879Z,0.50
2023-06-27T18:27:43.449Z,0.60
2023-06-27T18:30:10.806Z,0.60
2023-06-27T18:32:37.720Z,0.63
2023-06-27T18:35:05.076Z,0.70
2023-06-27T18:37:31.980Z,0.80
2023-06-27T18:39:58.836Z,0.47
2023-06-27T18:42:25.667Z,0.40
2023-06-27T18:44:52.611Z,0.63
2023-06-27T18:47:19.441Z,0.90
2023-06-27T18:49:46.341Z,1.50
2023-06-27T18:52:13.266Z,0.75
2023-06-27T18:54:40.089Z,0.60
2023-06-27T18:57:07.980Z,0.90
2023-06-27T18:59:35.021Z,0.82
2023-06-27T19:02:03.339Z,0.75
2023-06-27T19:04:30.749Z,0.85
2023-06-27T19:06:57.765Z,0.63
2023-06-27T19:09:25.936Z,0.75
2023-06-27T19:11:52.831Z,0.80
2023-06-27T19:14:19.782Z,1.00
2023-06-27T19:16:46.667Z,0.90
2023-06-27T19:19:14.132Z,0.70
2023-06-27T19:21:41.632Z,0.90
2023-06-27T19:24:11.706Z,0.70
2023-06-27T19:26:38.682Z,0.65
2023-06-27T19:29:05.543Z,0.75
2023-06-27T19:31:32.456Z,0.80
2023-06-27T19:33:59.348Z,0.70
2023-06-27T19:36:26.177Z,0.75
2023-06-27T19:38:54.921Z,1.08
2023-06-27T19:41:23.046Z,0.55
2023-06-27T19:43:49.979Z,0.80
2023-06-27T19:46:16.845Z,0.90
2023-06-27T19:48:43.771Z,1.33
2023-06-27T19:51:11.747Z,1.50
2023-06-27T19:53:39.213Z,1.27
2023-06-27T19:56:07.993Z,0.47
2023-06-27T19:58:38.551Z,0.85
2023-06-27T20:01:09.175Z,1.02
2023-06-27T20:03:36.101Z,1.00
2023-06-27T20:06:03.032Z,0.88
2023-06-27T20:08:29.952Z,0.70
2023-06-27T20:10:56.855Z,0.65
2023-06-27T20:13:23.771Z,0.70
2023-06-27T20:15:50.915Z,0.45
2023-06-27T20:18:17.799Z,0.73
2023-06-27T20:20:44.841Z,0.70
2023-06-27T20:23:11.911Z,0.73
2023-06-27T20:25:38.862Z,0.68
2023-06-27T20:28:05.651Z,0.65
2023-06-27T20:30:32.562Z,0.70
2023-06-27T20:32:59.422Z,0.90
2023-06-27T20:35:26.287Z,0.75
2023-06-27T20:37:53.159Z,1.02
2023-06-27T20:40:20.048Z,0.73
2023-06-27T20:42:48.442Z,0.80
2023-06-27T20:45:16.011Z,0.93
2023-06-27T20:47:42.857Z,0.70
2023-06-27T20:50:10.657Z,0.68
2023-06-27T20:52:37.604Z,0.55
2023-06-27T20:55:04.780Z,1.00
2023-06-27T20:57:31.653Z,1.00
2023-06-27T20:59:58.573Z,0.50
2023-06-27T21:02:25.676Z,0.80
2023-06-27T21:04:54.173Z,0.85
2023-06-27T21:07:21.106Z,0.65
2023-06-27T21:09:47.995Z,0.95
2023-06-27T21:12:14.847Z,0.60
2023-06-27T21:14:41.715Z,1.10
2023-06-27T21:17:08.558Z,0.80
2023-06-27T21:19:35.453Z,0.70
2023-06-27T21:22:02.847Z,0.85
2023-06-27T21:24:29.774Z,1.10
2023-06-27T21:26:56.687Z,0.63
2023-06-27T21:29:25.291Z,0.70
2023-06-27T21:31:52.226Z,0.90
2023-06-27T21:34:19.669Z,0.88
2023-06-27T21:36:46.536Z,0.65
2023-06-27T21:39:13.384Z,0.73
2023-06-27T21:41:40.287Z,1.10
2023-06-27T21:44:07.142Z,0.98
2023-06-27T21:46:35.728Z,0.80
2023-06-27T21:49:02.644Z,0.85
2023-06-27T21:51:29.628Z,1.35
2023-06-27T21:53:56.490Z,0.50
2023-06-27T21:56:23.294Z,0.50
2023-06-27T21:58:50.180Z,0.70
2023-06-27T22:01:17.084Z,0.82
2023-06-27T22:03:44.186Z,0.65
2023-06-27T22:06:11.734Z,0.63
2023-06-27T22:08:38.685Z,0.90
2023-06-27T22:11:06.040Z,0.95
2023-06-27T22:13:33.076Z,0.80
2023-06-27T22:15:59.931Z,0.80
2023-06-27T22:18:26.874Z,0.85
2023-06-27T22:20:53.695Z,1.00
2023-06-27T22:23:20.520Z,1.10
2023-06-27T22:25:47.385Z,0.60
2023-06-27T22:28:14.294Z,1.10
2023-06-27T22:30:41.555Z,0.57
2023-06-27T22:33:08.754Z,0.63
2023-06-27T22:35:35.707Z,0.70
2023-06-27T22:38:02.524Z,0.73
2023-06-27T22:40:29.428Z,0.60
2023-06-27T22:42:56.278Z,0.93
2023-06-27T22:45:23.123Z,0.70
2023-06-27T22:47:50.039Z,0.93
2023-06-27T22:50:16.963Z,0.73
2023-06-27T22:52:43.772Z,0.70
2023-06-27T22:55:10.762Z,1.10
2023-06-27T22:57:37.620Z,0.70
2023-06-27T23:00:05.827Z,0.95
2023-06-27T23:02:32.741Z,0.98
2023-06-27T23:04:59.722Z,1.30
2023-06-27T23:07:26.679Z,0.55
2023-06-27T23:09:53.636Z,0.65
2023-06-27T23:12:20.448Z,0.77
2023-06-27T23:14:47.311Z,1.40
2023-06-27T23:17:14.140Z,0.98
2023-06-27T23:19:40.949Z,1.20
2023-06-27T23:22:13.564Z,0.60
2023-06-27T23:24:42.349Z,0.75
2023-06-27T23:27:09.267Z,0.60
2023-06-27T23:29:37.254Z,0.90
2023-06-27T23:32:05.989Z,0.85
2023-06-27T23:34:33.031Z,0.65
2023-06-27T23:36:59.908Z,1.02
2023-06-27T23:39:26.844Z,0.40
2023-06-27T23:41:53.776Z,0.73
2023-06-27T23:44:20.673Z,1.15
2023-06-27T23:46:47.609Z,0.70
2023-06-27T23:49:14.493Z,0.70
2023-06-27T23:51:41.369Z,1.10
2023-06-27T23:54:08.237Z,0.85
2023-06-27T23:56:35.111Z,1.20
2023-06-27T23:59:02.090Z,0.85
